地図

経路データ

SID SEASON NUMBER BASIN SUBBASIN NAME ISO_TIME NATURE LAT LON WMO_WIND WMO_PRES WMO_AGENCY TRACK_TYPE DIST2LAND LANDFALL IFLAG USA_AGENCY USA_ATCF_ID USA_LAT USA_LON USA_RECORD USA_STATUS USA_WIND USA_PRES USA_SSHS USA_R34_NE USA_R34_SE USA_R34_SW USA_R34_NW USA_R50_NE USA_R50_SE USA_R50_SW USA_R50_NW USA_R64_NE USA_R64_SE USA_R64_SW USA_R64_NW USA_POCI USA_ROCI USA_RMW USA_EYE TOKYO_LAT TOKYO_LON TOKYO_GRADE TOKYO_WIND TOKYO_PRES TOKYO_R50_DIR TOKYO_R50_LONG TOKYO_R50_SHORT TOKYO_R30_DIR TOKYO_R30_LONG TOKYO_R30_SHORT TOKYO_LAND CMA_LAT CMA_LON CMA_CAT CMA_WIND CMA_PRES HKO_LAT HKO_LON HKO_CAT HKO_WIND HKO_PRES NEWDELHI_LAT NEWDELHI_LON NEWDELHI_GRADE NEWDELHI_WIND NEWDELHI_PRES NEWDELHI_CI NEWDELHI_DP NEWDELHI_POCI REUNION_LAT REUNION_LON REUNION_TYPE REUNION_WIND REUNION_PRES REUNION_TNUM REUNION_CI REUNION_RMW REUNION_R34_NE REUNION_R34_SE REUNION_R34_SW REUNION_R34_NW REUNION_R50_NE REUNION_R50_SE REUNION_R50_SW REUNION_R50_NW REUNION_R64_NE REUNION_R64_SE REUNION_R64_SW REUNION_R64_NW BOM_LAT BOM_LON BOM_TYPE BOM_WIND BOM_PRES BOM_TNUM BOM_CI BOM_RMW BOM_R34_NE BOM_R34_SE BOM_R34_SW BOM_R34_NW BOM_R50_NE BOM_R50_SE BOM_R50_SW BOM_R50_NW BOM_R64_NE BOM_R64_SE BOM_R64_SW BOM_R64_NW BOM_ROCI BOM_POCI BOM_EYE BOM_POS_METHOD BOM_PRES_METHOD NADI_LAT NADI_LON NADI_CAT NADI_WIND NADI_PRES WELLINGTON_LAT WELLINGTON_LON WELLINGTON_WIND WELLINGTON_PRES DS824_LAT DS824_LON DS824_STAGE DS824_WIND DS824_PRES TD9636_LAT TD9636_LON TD9636_STAGE TD9636_WIND TD9636_PRES TD9635_LAT TD9635_LON TD9635_WIND TD9635_PRES TD9635_ROCI NEUMANN_LAT NEUMANN_LON NEUMANN_CLASS NEUMANN_WIND NEUMANN_PRES MLC_LAT MLC_LON MLC_CLASS MLC_WIND MLC_PRES USA_GUST BOM_GUST BOM_GUST_PER REUNION_GUST REUNION_GUST_PER USA_SEAHGT USA_SEARAD_NE USA_SEARAD_SE USA_SEARAD_SW USA_SEARAD_NW STORM_SPEED STORM_DIR
2001093S10062 2001 17 SI MM EVARISTE 2001-04-02 12:00:00 TS -9.50000 62.1000 25 1003 reunion main 1277 1262 _____O________ -1 -9.50000 62.1000 2 25 1003 1.50000 1.50000 3 219
2001093S10062 2001 17 SI MM EVARISTE 2001-04-02 15:00:00 TS -9.61501 62.0000 main 1262 1248 _____P________ -1 -9.61501 62.0000 2 25 1002 3 225
2001093S10062 2001 17 SI MM EVARISTE 2001-04-02 18:00:00 TS -9.70000 61.9000 25 1002 reunion main 1248 1244 _____O________ -1 -9.70000 61.9000 2 25 1002 2.00000 2.00000 2 235
2001093S10062 2001 17 SI MM EVARISTE 2001-04-02 21:00:00 TS -9.74249 61.8125 main 1244 1230 _____P________ -1 -9.74249 61.8125 2 25 1001 5 274
2001093S10062 2001 17 SI MM EVARISTE 2001-04-03 00:00:00 TS -9.66667 61.4333 25 1000 reunion main 1230 1219 O____O______O_ jtwc_sh SH182001 -9.40000 60.7000 TD 30 -1 -9.80000 61.8000 2 25 1000 2.00000 2.00000 -9.40000 60.7000 TC 30 4 266
2001093S10062 2001 17 SI MM EVARISTE 2001-04-03 03:00:00 TS -9.77129 61.4212 main 1219 1212 P____P______P_ SH182001 -9.61505 60.9074 TD 30 -1 -9.92753 61.9350 2 25 1000 -9.61505 60.9074 TC 30 3 165
2001093S10062 2001 17 SI MM EVARISTE 2001-04-03 06:00:00 TS -9.92000 61.5000 25 1000 reunion main 1212 1194 O____O______O_ jtwc_sh SH182001 -9.80000 61.1000 TD 30 -1 -10.1000 62.1000 2 25 1000 2.00000 2.00000 -9.80000 61.1000 TC 30 3 155
2001093S10062 2001 17 SI MM EVARISTE 2001-04-03 09:00:00 TS -10.0641 61.5609 main 1194 1184 P____P______P_ SH182001 -9.94244 61.2776 TD 30 -1 -10.3074 62.1276 2 25 999 -9.94244 61.2776 TC 30 4 144
2001093S10062 2001 17 SI MM EVARISTE 2001-04-03 12:00:00 TS -10.2333 61.7333 25 999 reunion main 1188 1175 O____O______O_ jtwc_sh SH182001 -10.1000 61.5000 TD 30 -1 -10.5000 62.2000 2 25 999 2.00000 2.00000 -10.1000 61.5000 TC 30 6 127
2001093S10062 2001 17 SI MM EVARISTE 2001-04-03 15:00:00 TS -10.4184 62.0417 main 1179 1171 P____P______P_ SH182001 -10.3350 61.8200 TD 30 -1 -10.6001 62.4700 2 25 999 -10.3201 61.8350 TC 30 8 121
2001093S10062 2001 17 SI MM EVARISTE 2001-04-03 18:00:00 TS -10.6333 62.4000 25 999 reunion main 1176 1160 O____O______O_ jtwc_sh SH182001 -10.6000 62.2000 TD 30 -1 -10.7000 62.8000 2 25 999 2.00000 2.00000 -10.6000 62.2000 TC 30 8 124
2001093S10062 2001 17 SI MM EVARISTE 2001-04-03 21:00:00 TS -10.8675 62.7292 main 1160 1150 P____P______P_ SH182001 -10.8201 62.6226 TD 32 -1 -10.8475 63.0576 2 25 999 -10.9349 62.5075 TC 32 8 131
2001093S10062 2001 17 SI MM EVARISTE 2001-04-04 00:00:00 TS -11.1667 63.0333 25 999 reunion main 1146 1133 O____O______O_ jtwc_sh SH182001 -11.1000 63.0000 TS 35 0 -11.1000 63.3000 2 25 999 2.00000 2.00000 -11.3000 62.8000 TC 35 9 139
2001093S10062 2001 17 SI MM EVARISTE 2001-04-04 03:00:00 TS -11.5708 63.3631 main 1129 1097 P____P______P_ SH182001 -11.5274 63.2823 TS 35 0 -11.5200 63.6246 2 25 999 -11.6651 63.1823 TC 35 10 150
2001093S10062 2001 17 SI MM EVARISTE 2001-04-04 06:00:00 TS -12.0000 63.5333 25 999 reunion main 1097 1054 O____O______O_ jtwc_sh SH182001 -12.0000 63.4000 TS 35 0 -12.0000 63.8000 2 25 999 2.00000 2.00000 -12.0000 63.4000 TC 35 8 177
2001093S10062 2001 17 SI MM EVARISTE 2001-04-04 09:00:00 TS -12.3875 63.4019 main 1054 1008 P____P______P_ SH182001 -12.4524 63.3327 TS 35 0 -12.4450 63.6403 2 27 998 -12.2650 63.2327 TC 37 8 211
2001093S10062 2001 17 SI MM EVARISTE 2001-04-04 12:00:00 TS -12.7000 63.1000 30 997 reunion main 1008 971 O____O______O_ jtwc_sh SH182001 -12.8000 63.1000 TS 35 0 -12.8000 63.3000 2 30 997 2.50000 2.50000 -12.5000 62.9000 TC 40 8 229
2001093S10062 2001 17 SI MM EVARISTE 2001-04-04 15:00:00 TS -12.9042 62.7983 main 971 944 P____P______P_ SH182001 -12.9451 62.7724 TS 40 0 -12.9950 62.9649 2 32 996 -12.7725 62.6575 TC 42 7 242
2001093S10062 2001 17 SI MM EVARISTE 2001-04-04 18:00:00 TS -13.0333 62.4667 35 995 reunion main 944 912 O____O______O_ jtwc_sh SH182001 -13.0000 62.4000 TS 45 0 -13.1000 62.6000 3 35 995 2.50000 2.50000 -13.0000 62.4000 TC 45 7 251
2001093S10062 2001 17 SI MM EVARISTE 2001-04-04 21:00:00 TS -13.1309 62.1274 main 912 887 P____P______P_ SH182001 -13.0850 62.0700 TS 50 0 -13.2000 62.2274 3 37 992 -13.1076 62.0849 TC 50 6 252
2001093S10062 2001 17 SI MM EVARISTE 2001-04-05 00:00:00 TS -13.2333 61.8333 40 990 reunion main 887 857 O____O______O_ jtwc_sh SH182001 -13.2000 61.8000 TS 55 0 -13.3000 61.9000 3 40 990 3.00000 3.00000 -13.2000 61.8000 TC 55 5 242
2001093S10062 2001 17 SI MM EVARISTE 2001-04-05 03:00:00 TS -13.3866 61.6341 main 857 832 P____P______P_ SH182001 -13.3774 61.6200 TS 57 0 -13.4049 61.6624 3 45 987 -13.3774 61.6200 TC 57 5 221
2001093S10062 2001 17 SI MM EVARISTE 2001-04-05 06:00:00 TS -13.6000 61.5000 50 985 reunion main 832 797 O____O______O_ jtwc_sh SH182001 -13.6000 61.5000 TS 60 0 -13.6000 61.5000 3 50 985 3.50000 3.50000 -13.6000 61.5000 TC 60 5 206
2001093S10062 2001 17 SI MM EVARISTE 2001-04-05 09:00:00 TS -13.8725 61.3900 main 797 762 P____P______P_ SH182001 -13.8200 61.3924 TS 62 0 -13.9775 61.3850 3 52 981 -13.8200 61.3924 TC 62 6 198
2001093S10062 2001 17 SI MM EVARISTE 2001-04-05 12:00:00 TS -14.2000 61.3000 55 978 reunion main 762 728 O____O______O_ jtwc_sh SH182001 -14.1000 61.3000 TY 65 1 -14.4000 61.3000 3 55 978 4.00000 4.00000 -14.1000 61.3000 TC 65 7 195
2001093S10062 2001 17 SI MM EVARISTE 2001-04-05 15:00:00 TS -14.5667 61.1925 main 718 684 P____P______P_ SH182001 -14.4925 61.1926 TY 70 1 -14.7150 61.1925 3 57 976 -14.4925 61.1926 TC 70 8 195
2001093S10062 2001 17 SI MM EVARISTE 2001-04-05 18:00:00 TS -14.9333 61.1000 60 975 reunion main 684 650 O____O______O_ jtwc_sh SH182001 -14.9000 61.1000 TY 75 1 -15.0000 61.1000 3 60 975 4.00000 4.00000 -14.9000 61.1000 TC 75 7 193
2001093S10062 2001 17 SI MM EVARISTE 2001-04-05 21:00:00 TS -15.2383 61.0350 main 650 622 P____P______P_ SH182001 -15.2075 61.0350 TY 75 1 -15.3000 61.0350 3 60 974 -15.2075 61.0350 TC 75 6 189
2001093S10062 2001 17 SI MM EVARISTE 2001-04-06 00:00:00 TS -15.5333 61.0000 60 973 reunion main 622 594 O____O______O_ jtwc_sh SH182001 -15.5000 61.0000 TY 75 1 -15.6000 61.0000 3 60 973 4.00000 4.00000 -15.5000 61.0000 TC 75 6 0
2001093S10062 2001 17 SI MM EVARISTE 2001-04-06 03:00:00 TS -15.8517 61.0074 main 585 558 P____P______P_ SH182001 -15.8350 61.0074 TY 75 1 -15.8850 61.0074 3 60 974 -15.8350 61.0074 TC 75 7 179
2001093S10062 2001 17 SI MM EVARISTE 2001-04-06 06:00:00 TS -16.2000 61.0000 60 975 reunion main 558 525 O____O______O_ jtwc_sh SH182001 -16.2000 61.0000 TY 75 1 -16.2000 61.0000 3 60 975 3.50000 4.00000 -16.2000 61.0000 TC 75 7 190
2001093S10062 2001 17 SI MM EVARISTE 2001-04-06 09:00:00 TS -16.5700 60.8853 main 517 476 P____P______P_ SH182001 -16.5700 60.8778 TY 72 1 -16.5700 60.9001 3 60 975 -16.5700 60.8778 TC 72 8 193
2001093S10062 2001 17 SI MM EVARISTE 2001-04-06 12:00:00 TS -17.0000 60.8000 60 975 reunion main 476 444 O____O______O_ jtwc_sh SH182001 -17.0000 60.8000 TY 70 1 -17.0000 60.8000 3 60 975 3.50000 4.00000 -17.0000 60.8000 TC 70 9 182
2001093S10062 2001 17 SI MM EVARISTE 2001-04-06 15:00:00 TS -17.4683 60.8453 main 437 416 P____P______P_ SH182001 -17.4675 60.8829 TY 67 1 -17.4700 60.7700 3 57 977 -17.4675 60.8829 TC 67 11 170
2001093S10062 2001 17 SI MM EVARISTE 2001-04-06 18:00:00 TS -18.0667 61.0000 55 980 reunion main 412 393 O____O______O_ jtwc_sh SH182001 -18.1000 61.1000 TY 65 1 -18.0000 60.8000 3 55 980 3.00000 4.00000 -18.1000 61.1000 TC 65 14 165
2001093S10062 2001 17 SI MM EVARISTE 2001-04-06 21:00:00 TS -18.8375 61.2218 main 393 386 P____P______P_ SH182001 -19.0051 61.4196 TY 60 0 -18.5023 60.8262 3 52 982 -19.0051 61.4196 TC 60 18 163
2001093S10062 2001 17 SI MM EVARISTE 2001-04-07 00:00:00 TS -19.7333 61.5333 50 985 reunion main 392 392 O____O______O_ jtwc_sh SH182001 -20.0000 61.8000 TS 55 0 -19.2000 61.0000 3 50 985 3.00000 3.50000 -20.0000 61.8000 TC 55 20 158
2001093S10062 2001 17 SI MM EVARISTE 2001-04-07 03:00:00 TS -20.7086 62.0188 main 439 439 P____P______P_ SH182001 -20.9025 62.2611 TS 55 0 -20.3207 61.5343 3 47 986 -20.9025 62.2611 TC 55 21 158
2001093S10062 2001 17 SI MM EVARISTE 2001-04-07 06:00:00 TS -21.6333 62.3333 45 987 reunion main 489 489 O____O______O_ jtwc_sh SH182001 -21.7000 62.5000 TS 55 0 -21.5000 62.0000 3 45 987 2.50000 3.50000 -21.7000 62.5000 TC 55 17 177
2001093S10062 2001 17 SI MM EVARISTE 2001-04-07 09:00:00 TS -22.4400 62.1337 main 502 498 P____P______P_ SH182001 -22.4202 62.2070 TS 50 0 -22.4795 61.9871 3 42 988 -22.4202 62.2070 TC 50 15 204
2001093S10062 2001 17 SI MM EVARISTE 2001-04-07 12:00:00 TS -22.9667 61.7000 40 990 reunion main 498 471 O____O______O_ jtwc_sh SH182001 -22.9000 61.7000 TS 45 0 -23.1000 61.7000 3 40 990 2.00000 3.00000 -22.9000 61.7000 TC 45 10 232
2001093S10062 2001 17 SI MM EVARISTE 2001-04-07 15:00:00 TS -23.0485 61.2826 main 465 440 P____P______P_ SH182001 -23.0026 61.2893 TS 42 0 -23.1404 61.2692 3 37 992 -23.0026 61.2893 TC 42 7 267
2001093S10062 2001 17 SI MM EVARISTE 2001-04-07 18:00:00 TS -23.0000 60.9667 35 995 reunion main 440 432 O____O______O_ jtwc_sh SH182001 -23.0000 61.0000 TS 40 0 -23.0000 60.9000 3 35 995 2.00000 2.50000 -23.0000 61.0000 TC 40 4 253
2001093S10062 2001 17 SI MM EVARISTE 2001-04-07 21:00:00 TS -23.1753 60.8439 main 439 439 P____P______P_ SH182001 -23.1970 60.8656 TS 40 0 -23.1319 60.8007 3 30 997 -23.1970 60.8656 TC 40 5 175
2001093S10062 2001 17 SI MM EVARISTE 2001-04-08 00:00:00 TS -23.4667 61.0000 25 999 reunion main 477 477 O____O______O_ jtwc_sh SH182001 -23.5000 61.0000 TS 40 0 -23.4000 61.0000 2 25 999 1.50000 2.00000 -23.5000 61.0000 TC 40 8 137
2001093S10062 2001 17 SI MM EVARISTE 2001-04-08 03:00:00 TS -23.7716 61.4504 main 537 537 P____P______P_ SH182001 -23.8024 61.4313 TS 35 0 -23.7100 61.4884 2 25 999 -23.8024 61.4313 TC 37 13 127
2001093S10062 2001 17 SI MM EVARISTE 2001-04-08 06:00:00 TS -24.2600 62.1400 25 1000 reunion main 620 620 O____O______O_ jtwc_sh SH182001 -24.3000 62.1000 TD 30 -1 -24.2000 62.2000 2 25 1000 1.50000 2.00000 -24.3000 62.1000 TC 35 18 132
2001093S10062 2001 17 SI MM EVARISTE 2001-04-08 09:00:00 TS -25.0058 62.9441 main 732 732 P____P______P_ SH182001 -25.1084 62.8739 TD 27 -1 -24.9032 63.0142 2 25 1000 -25.1084 62.8739 TC 30 22 139
2001093S10062 2001 17 SI MM EVARISTE 2001-04-08 12:00:00 TS -25.9200 63.7600 25 1000 reunion main 867 867 O____O______O_ jtwc_sh SH182001 -26.1000 63.7000 TD 25 -1 -25.8000 63.8000 6 25 1000 9.90000 -26.1000 63.7000 TC 25 22 145
2001093S10062 2001 17 SI MM EVARISTE 2001-04-08 15:00:00 TS -26.8195 64.3694 main 979 979 _____P________ SH182001 TD -1 -26.8195 64.3694 6 25 1001 TC 22 155
2001093S10062 2001 17 SI MM EVARISTE 2001-04-08 18:00:00 TS -27.9000 64.8000 25 1002 reunion main 1095 _____O________ -1 -27.9000 64.8000 6 25 1002 9.90000 23 161

IBTrACS Databaseについて

本データベースは、米国NOAAが公開する1842年以降の世界の熱帯低気圧のベストトラックデータアーカイブInternational Best Track Archive for Climate Stewardship (IBTrACS)を、ウェブで閲覧しやすい形式に変換したものです。

最終更新日:2021-10-21